sensor_id;sensor_type;location;lat;lon;timestamp;P1;durP1;ratioP1;P2;durP2;ratioP2
74620;SDS011;64861;47.546;19.254;2022-12-24T00:01:15;14.82;;;11.40;;
74620;SDS011;64861;47.546;19.254;2022-12-24T00:03:40;15.45;;;11.60;;
74620;SDS011;64861;47.546;19.254;2022-12-24T00:06:06;16.33;;;11.00;;
74620;SDS011;64861;47.546;19.254;2022-12-24T00:08:33;15.52;;;10.38;;
74620;SDS011;64861;47.546;19.254;2022-12-24T00:10:59;14.15;;;10.77;;
74620;SDS011;64861;47.546;19.254;2022-12-24T00:13:24;15.95;;;11.43;;
74620;SDS011;64861;47.546;19.254;2022-12-24T00:15:50;16.40;;;11.02;;
74620;SDS011;64861;47.546;19.254;2022-12-24T00:18:15;16.63;;;11.50;;
74620;SDS011;64861;47.546;19.254;2022-12-24T00:20:44;14.05;;;10.07;;
74620;SDS011;64861;47.546;19.254;2022-12-24T00:23:11;15.30;;;10.90;;
74620;SDS011;64861;47.546;19.254;2022-12-24T00:25:36;15.30;;;10.93;;
74620;SDS011;64861;47.546;19.254;2022-12-24T00:28:02;15.50;;;11.48;;
74620;SDS011;64861;47.546;19.254;2022-12-24T00:30:27;16.67;;;11.23;;
74620;SDS011;64861;47.546;19.254;2022-12-24T00:32:53;16.30;;;11.15;;
74620;SDS011;64861;47.546;19.254;2022-12-24T00:35:18;16.55;;;11.25;;
74620;SDS011;64861;47.546;19.254;2022-12-24T00:37:46;16.73;;;11.25;;
74620;SDS011;64861;47.546;19.254;2022-12-24T00:40:15;15.85;;;11.43;;
74620;SDS011;64861;47.546;19.254;2022-12-24T00:42:41;15.50;;;11.07;;
74620;SDS011;64861;47.546;19.254;2022-12-24T00:45:07;14.95;;;11.00;;
74620;SDS011;64861;47.546;19.254;2022-12-24T00:47:33;14.85;;;10.80;;
74620;SDS011;64861;47.546;19.254;2022-12-24T00:49:59;14.95;;;10.88;;
74620;SDS011;64861;47.546;19.254;2022-12-24T00:52:24;15.00;;;10.77;;
74620;SDS011;64861;47.546;19.254;2022-12-24T00:54:50;14.77;;;10.90;;
74620;SDS011;64861;47.546;19.254;2022-12-24T00:57:16;15.10;;;10.45;;
74620;SDS011;64861;47.546;19.254;2022-12-24T00:59:41;16.05;;;11.65;;
74620;SDS011;64861;47.546;19.254;2022-12-24T01:02:07;15.13;;;10.68;;
74620;SDS011;64861;47.546;19.254;2022-12-24T01:04:32;13.70;;;10.15;;
74620;SDS011;64861;47.546;19.254;2022-12-24T01:07:16;15.40;;;10.88;;
74620;SDS011;64861;47.546;19.254;2022-12-24T01:09:42;16.35;;;10.98;;
74620;SDS011;64861;47.546;19.254;2022-12-24T01:12:07;15.27;;;11.02;;
74620;SDS011;64861;47.546;19.254;2022-12-24T01:14:32;14.70;;;10.40;;
74620;SDS011;64861;47.546;19.254;2022-12-24T01:16:58;14.77;;;10.93;;
74620;SDS011;64861;47.546;19.254;2022-12-24T01:19:23;15.48;;;10.75;;
74620;SDS011;64861;47.546;19.254;2022-12-24T01:21:49;14.52;;;10.82;;
74620;SDS011;64861;47.546;19.254;2022-12-24T01:24:14;16.83;;;11.38;;
74620;SDS011;64861;47.546;19.254;2022-12-24T01:26:41;14.98;;;10.52;;
74620;SDS011;64861;47.546;19.254;2022-12-24T01:29:07;14.60;;;10.48;;
74620;SDS011;64861;47.546;19.254;2022-12-24T01:31:32;15.38;;;11.43;;
74620;SDS011;64861;47.546;19.254;2022-12-24T01:33:58;15.07;;;10.93;;
74620;SDS011;64861;47.546;19.254;2022-12-24T01:36:24;14.75;;;10.70;;
74620;SDS011;64861;47.546;19.254;2022-12-24T01:38:49;14.93;;;10.80;;
74620;SDS011;64861;47.546;19.254;2022-12-24T01:41:16;15.07;;;10.35;;
74620;SDS011;64861;47.546;19.254;2022-12-24T01:46:52;15.85;;;11.43;;
74620;SDS011;64861;47.546;19.254;2022-12-24T01:49:22;15.48;;;11.10;;
74620;SDS011;64861;47.546;19.254;2022-12-24T01:51:50;14.35;;;10.25;;
74620;SDS011;64861;47.546;19.254;2022-12-24T01:54:23;14.27;;;10.65;;
74620;SDS011;64861;47.546;19.254;2022-12-24T01:57:01;14.93;;;10.68;;
74620;SDS011;64861;47.546;19.254;2022-12-24T01:59:30;16.45;;;10.57;;
74620;SDS011;64861;47.546;19.254;2022-12-24T02:01:56;15.70;;;10.60;;
74620;SDS011;64861;47.546;19.254;2022-12-24T02:04:25;14.02;;;10.48;;
74620;SDS011;64861;47.546;19.254;2022-12-24T02:06:53;14.50;;;9.90;;
74620;SDS011;64861;47.546;19.254;2022-12-24T02:09:18;14.00;;;10.20;;
74620;SDS011;64861;47.546;19.254;2022-12-24T02:11:44;15.35;;;11.05;;
74620;SDS011;64861;47.546;19.254;2022-12-24T02:14:10;14.23;;;10.52;;
74620;SDS011;64861;47.546;19.254;2022-12-24T02:16:58;14.38;;;9.95;;
74620;SDS011;64861;47.546;19.254;2022-12-24T02:30:40;13.32;;;10.23;;
74620;SDS011;64861;47.546;19.254;2022-12-24T02:33:12;15.70;;;10.75;;
74620;SDS011;64861;47.546;19.254;2022-12-24T02:38:45;13.85;;;10.30;;
74620;SDS011;64861;47.546;19.254;2022-12-24T02:41:25;13.93;;;9.95;;
74620;SDS011;64861;47.546;19.254;2022-12-24T02:44:14;14.07;;;10.63;;
74620;SDS011;64861;47.546;19.254;2022-12-24T02:46:43;15.20;;;10.75;;
74620;SDS011;64861;47.546;19.254;2022-12-24T02:49:09;14.95;;;10.45;;
74620;SDS011;64861;47.546;19.254;2022-12-24T02:51:50;14.13;;;10.13;;
74620;SDS011;64861;47.546;19.254;2022-12-24T02:54:16;14.02;;;10.15;;
74620;SDS011;64861;47.546;19.254;2022-12-24T03:04:40;13.98;;;10.02;;
74620;SDS011;64861;47.546;19.254;2022-12-24T03:07:30;14.48;;;10.27;;
74620;SDS011;64861;47.546;19.254;2022-12-24T03:10:26;14.00;;;9.75;;
74620;SDS011;64861;47.546;19.254;2022-12-24T03:12:59;13.38;;;10.07;;
74620;SDS011;64861;47.546;19.254;2022-12-24T03:15:31;14.25;;;10.20;;
74620;SDS011;64861;47.546;19.254;2022-12-24T03:17:59;15.45;;;10.95;;
74620;SDS011;64861;47.546;19.254;2022-12-24T03:20:38;14.70;;;10.57;;
74620;SDS011;64861;47.546;19.254;2022-12-24T03:23:14;14.15;;;10.25;;
74620;SDS011;64861;47.546;19.254;2022-12-24T03:25:40;14.50;;;10.27;;
74620;SDS011;64861;47.546;19.254;2022-12-24T03:28:08;12.95;;;9.45;;
74620;SDS011;64861;47.546;19.254;2022-12-24T03:30:38;14.45;;;10.40;;
74620;SDS011;64861;47.546;19.254;2022-12-24T03:33:05;13.45;;;10.00;;
74620;SDS011;64861;47.546;19.254;2022-12-24T03:35:30;14.60;;;10.32;;
74620;SDS011;64861;47.546;19.254;2022-12-24T03:37:55;12.93;;;9.88;;
74620;SDS011;64861;47.546;19.254;2022-12-24T03:40:21;14.32;;;10.07;;
74620;SDS011;64861;47.546;19.254;2022-12-24T03:42:46;14.13;;;10.13;;
74620;SDS011;64861;47.546;19.254;2022-12-24T03:45:12;13.90;;;10.30;;
74620;SDS011;64861;47.546;19.254;2022-12-24T03:47:38;13.77;;;10.00;;
74620;SDS011;64861;47.546;19.254;2022-12-24T03:50:03;14.60;;;10.55;;
74620;SDS011;64861;47.546;19.254;2022-12-24T03:52:30;13.02;;;9.95;;
74620;SDS011;64861;47.546;19.254;2022-12-24T03:54:55;13.18;;;10.00;;
74620;SDS011;64861;47.546;19.254;2022-12-24T03:57:21;14.75;;;10.45;;
74620;SDS011;64861;47.546;19.254;2022-12-24T03:59:46;13.48;;;10.13;;
74620;SDS011;64861;47.546;19.254;2022-12-24T04:02:11;13.25;;;9.82;;
74620;SDS011;64861;47.546;19.254;2022-12-24T04:04:37;14.13;;;10.52;;
74620;SDS011;64861;47.546;19.254;2022-12-24T04:07:03;15.65;;;10.35;;
74620;SDS011;64861;47.546;19.254;2022-12-24T04:09:29;13.10;;;9.82;;
74620;SDS011;64861;47.546;19.254;2022-12-24T04:11:54;14.52;;;9.82;;
74620;SDS011;64861;47.546;19.254;2022-12-24T04:14:20;12.95;;;9.93;;
74620;SDS011;64861;47.546;19.254;2022-12-24T04:16:45;14.65;;;10.43;;
74620;SDS011;64861;47.546;19.254;2022-12-24T04:19:11;15.60;;;10.73;;
74620;SDS011;64861;47.546;19.254;2022-12-24T04:21:36;13.52;;;10.30;;
74620;SDS011;64861;47.546;19.254;2022-12-24T04:24:02;13.23;;;9.68;;
74620;SDS011;64861;47.546;19.254;2022-12-24T04:26:27;14.23;;;9.68;;
74620;SDS011;64861;47.546;19.254;2022-12-24T04:28:53;13.52;;;10.30;;
74620;SDS011;64861;47.546;19.254;2022-12-24T04:31:18;13.95;;;9.88;;
74620;SDS011;64861;47.546;19.254;2022-12-24T04:33:44;13.15;;;9.70;;
74620;SDS011;64861;47.546;19.254;2022-12-24T04:36:14;12.60;;;10.00;;
74620;SDS011;64861;47.546;19.254;2022-12-24T04:38:41;14.48;;;10.35;;
74620;SDS011;64861;47.546;19.254;2022-12-24T04:41:12;13.07;;;9.38;;
74620;SDS011;64861;47.546;19.254;2022-12-24T04:43:39;14.93;;;10.10;;
74620;SDS011;64861;47.546;19.254;2022-12-24T04:46:08;14.88;;;9.75;;
74620;SDS011;64861;47.546;19.254;2022-12-24T04:48:35;14.43;;;10.60;;
74620;SDS011;64861;47.546;19.254;2022-12-24T04:51:02;13.82;;;9.75;;
74620;SDS011;64861;47.546;19.254;2022-12-24T04:53:29;13.60;;;10.05;;
74620;SDS011;64861;47.546;19.254;2022-12-24T04:55:56;13.05;;;9.93;;
74620;SDS011;64861;47.546;19.254;2022-12-24T04:58:21;15.25;;;10.50;;
74620;SDS011;64861;47.546;19.254;2022-12-24T05:00:47;12.50;;;9.25;;
74620;SDS011;64861;47.546;19.254;2022-12-24T05:03:13;13.52;;;9.68;;
74620;SDS011;64861;47.546;19.254;2022-12-24T05:05:38;15.00;;;10.20;;
74620;SDS011;64861;47.546;19.254;2022-12-24T05:08:04;14.55;;;10.25;;
74620;SDS011;64861;47.546;19.254;2022-12-24T05:10:30;13.00;;;9.50;;
74620;SDS011;64861;47.546;19.254;2022-12-24T05:12:55;13.70;;;10.00;;
74620;SDS011;64861;47.546;19.254;2022-12-24T05:15:21;13.20;;;9.75;;
74620;SDS011;64861;47.546;19.254;2022-12-24T05:17:46;14.68;;;10.40;;
74620;SDS011;64861;47.546;19.254;2022-12-24T05:20:12;13.73;;;9.95;;
74620;SDS011;64861;47.546;19.254;2022-12-24T05:22:37;13.63;;;9.65;;
74620;SDS011;64861;47.546;19.254;2022-12-24T05:25:21;13.60;;;9.68;;
74620;SDS011;64861;47.546;19.254;2022-12-24T05:28:05;12.40;;;9.35;;
74620;SDS011;64861;47.546;19.254;2022-12-24T05:30:31;14.88;;;9.75;;
74620;SDS011;64861;47.546;19.254;2022-12-24T05:32:56;12.45;;;8.90;;
74620;SDS011;64861;47.546;19.254;2022-12-24T05:35:22;13.07;;;9.45;;
74620;SDS011;64861;47.546;19.254;2022-12-24T05:37:47;13.35;;;9.98;;
74620;SDS011;64861;47.546;19.254;2022-12-24T05:40:13;14.02;;;9.75;;
74620;SDS011;64861;47.546;19.254;2022-12-24T05:42:38;13.93;;;10.20;;
74620;SDS011;64861;47.546;19.254;2022-12-24T05:45:04;13.50;;;9.90;;
74620;SDS011;64861;47.546;19.254;2022-12-24T05:47:30;13.75;;;9.77;;
74620;SDS011;64861;47.546;19.254;2022-12-24T05:49:55;13.13;;;9.40;;
74620;SDS011;64861;47.546;19.254;2022-12-24T05:52:21;14.23;;;10.20;;
74620;SDS011;64861;47.546;19.254;2022-12-24T05:54:46;12.77;;;8.82;;
74620;SDS011;64861;47.546;19.254;2022-12-24T05:57:11;12.07;;;8.77;;
74620;SDS011;64861;47.546;19.254;2022-12-24T05:59:37;13.48;;;9.75;;
74620;SDS011;64861;47.546;19.254;2022-12-24T06:02:02;13.23;;;9.25;;
74620;SDS011;64861;47.546;19.254;2022-12-24T06:04:28;13.18;;;9.50;;
74620;SDS011;64861;47.546;19.254;2022-12-24T06:06:53;14.07;;;9.98;;
74620;SDS011;64861;47.546;19.254;2022-12-24T06:09:18;14.13;;;9.80;;
74620;SDS011;64861;47.546;19.254;2022-12-24T06:11:44;13.95;;;9.65;;
74620;SDS011;64861;47.546;19.254;2022-12-24T06:14:09;12.60;;;9.25;;
74620;SDS011;64861;47.546;19.254;2022-12-24T06:16:35;13.15;;;10.00;;
74620;SDS011;64861;47.546;19.254;2022-12-24T06:19:01;12.90;;;9.32;;
74620;SDS011;64861;47.546;19.254;2022-12-24T06:21:26;13.45;;;9.40;;
74620;SDS011;64861;47.546;19.254;2022-12-24T06:23:51;14.18;;;9.20;;
74620;SDS011;64861;47.546;19.254;2022-12-24T06:26:19;12.65;;;8.98;;
74620;SDS011;64861;47.546;19.254;2022-12-24T06:28:47;12.60;;;9.32;;
74620;SDS011;64861;47.546;19.254;2022-12-24T06:31:14;13.98;;;9.63;;
74620;SDS011;64861;47.546;19.254;2022-12-24T06:33:41;13.35;;;9.38;;
74620;SDS011;64861;47.546;19.254;2022-12-24T06:36:07;13.07;;;9.30;;
74620;SDS011;64861;47.546;19.254;2022-12-24T06:38:37;13.25;;;9.45;;
74620;SDS011;64861;47.546;19.254;2022-12-24T06:41:06;14.10;;;9.40;;
74620;SDS011;64861;47.546;19.254;2022-12-24T06:43:32;13.48;;;8.93;;
74620;SDS011;64861;47.546;19.254;2022-12-24T06:45:58;12.70;;;9.02;;
74620;SDS011;64861;47.546;19.254;2022-12-24T06:48:24;12.95;;;9.20;;
74620;SDS011;64861;47.546;19.254;2022-12-24T06:50:50;13.48;;;9.27;;
74620;SDS011;64861;47.546;19.254;2022-12-24T06:53:16;12.75;;;9.32;;
74620;SDS011;64861;47.546;19.254;2022-12-24T06:55:41;13.13;;;9.20;;
74620;SDS011;64861;47.546;19.254;2022-12-24T06:58:07;14.15;;;9.88;;
74620;SDS011;64861;47.546;19.254;2022-12-24T07:00:32;13.48;;;9.18;;
74620;SDS011;64861;47.546;19.254;2022-12-24T07:02:57;12.38;;;8.93;;
74620;SDS011;64861;47.546;19.254;2022-12-24T07:05:23;12.25;;;9.05;;
74620;SDS011;64861;47.546;19.254;2022-12-24T07:07:49;12.32;;;8.68;;
74620;SDS011;64861;47.546;19.254;2022-12-24T07:10:15;12.98;;;9.32;;
74620;SDS011;64861;47.546;19.254;2022-12-24T07:12:41;11.95;;;8.98;;
74620;SDS011;64861;47.546;19.254;2022-12-24T07:15:07;13.40;;;9.20;;
74620;SDS011;64861;47.546;19.254;2022-12-24T07:17:34;13.73;;;9.50;;
74620;SDS011;64861;47.546;19.254;2022-12-24T07:19:59;12.13;;;9.27;;
74620;SDS011;64861;47.546;19.254;2022-12-24T07:22:25;12.18;;;9.32;;
74620;SDS011;64861;47.546;19.254;2022-12-24T07:24:50;11.77;;;8.90;;
74620;SDS011;64861;47.546;19.254;2022-12-24T07:27:16;14.02;;;9.57;;
74620;SDS011;64861;47.546;19.254;2022-12-24T07:29:41;12.80;;;9.35;;
74620;SDS011;64861;47.546;19.254;2022-12-24T07:32:07;12.30;;;9.43;;
74620;SDS011;64861;47.546;19.254;2022-12-24T07:34:32;11.85;;;8.73;;
74620;SDS011;64861;47.546;19.254;2022-12-24T07:36:58;13.30;;;9.32;;
74620;SDS011;64861;47.546;19.254;2022-12-24T07:39:24;12.68;;;9.18;;
74620;SDS011;64861;47.546;19.254;2022-12-24T07:41:49;13.55;;;9.38;;
74620;SDS011;64861;47.546;19.254;2022-12-24T07:44:15;12.65;;;9.38;;
74620;SDS011;64861;47.546;19.254;2022-12-24T07:46:41;12.02;;;9.15;;
74620;SDS011;64861;47.546;19.254;2022-12-24T07:49:07;11.90;;;8.77;;
74620;SDS011;64861;47.546;19.254;2022-12-24T07:51:32;12.23;;;9.05;;
74620;SDS011;64861;47.546;19.254;2022-12-24T07:53:58;12.80;;;9.65;;
74620;SDS011;64861;47.546;19.254;2022-12-24T07:56:23;13.35;;;8.77;;
74620;SDS011;64861;47.546;19.254;2022-12-24T07:58:49;13.07;;;8.95;;
74620;SDS011;64861;47.546;19.254;2022-12-24T08:01:15;12.32;;;8.93;;
74620;SDS011;64861;47.546;19.254;2022-12-24T08:03:41;13.13;;;8.75;;
74620;SDS011;64861;47.546;19.254;2022-12-24T08:06:06;12.90;;;8.93;;
74620;SDS011;64861;47.546;19.254;2022-12-24T08:08:32;12.65;;;8.82;;
74620;SDS011;64861;47.546;19.254;2022-12-24T08:11:00;12.63;;;9.10;;
74620;SDS011;64861;47.546;19.254;2022-12-24T08:13:27;11.30;;;8.60;;
74620;SDS011;64861;47.546;19.254;2022-12-24T08:15:53;13.50;;;9.15;;
74620;SDS011;64861;47.546;19.254;2022-12-24T08:18:18;13.70;;;9.43;;
74620;SDS011;64861;47.546;19.254;2022-12-24T08:20:44;12.35;;;8.63;;
74620;SDS011;64861;47.546;19.254;2022-12-24T08:23:09;13.32;;;8.82;;
74620;SDS011;64861;47.546;19.254;2022-12-24T08:25:34;12.30;;;8.93;;
74620;SDS011;64861;47.546;19.254;2022-12-24T08:28:01;13.93;;;8.70;;
74620;SDS011;64861;47.546;19.254;2022-12-24T08:30:26;12.07;;;8.45;;
74620;SDS011;64861;47.546;19.254;2022-12-24T08:32:52;11.48;;;8.02;;
74620;SDS011;64861;47.546;19.254;2022-12-24T08:35:18;11.07;;;8.40;;
74620;SDS011;64861;47.546;19.254;2022-12-24T08:37:44;11.70;;;8.50;;
74620;SDS011;64861;47.546;19.254;2022-12-24T08:40:10;11.38;;;8.23;;
74620;SDS011;64861;47.546;19.254;2022-12-24T08:42:35;12.05;;;8.85;;
74620;SDS011;64861;47.546;19.254;2022-12-24T08:45:01;11.40;;;8.55;;
74620;SDS011;64861;47.546;19.254;2022-12-24T08:47:26;11.70;;;8.75;;
74620;SDS011;64861;47.546;19.254;2022-12-24T08:49:52;11.88;;;8.10;;
74620;SDS011;64861;47.546;19.254;2022-12-24T08:52:17;11.32;;;8.20;;
74620;SDS011;64861;47.546;19.254;2022-12-24T08:54:43;11.18;;;8.00;;
74620;SDS011;64861;47.546;19.254;2022-12-24T08:57:08;11.70;;;8.93;;
74620;SDS011;64861;47.546;19.254;2022-12-24T08:59:33;10.77;;;8.00;;
74620;SDS011;64861;47.546;19.254;2022-12-24T09:01:59;11.02;;;7.95;;
74620;SDS011;64861;47.546;19.254;2022-12-24T09:04:25;10.60;;;7.85;;
74620;SDS011;64861;47.546;19.254;2022-12-24T09:06:51;11.88;;;8.30;;
74620;SDS011;64861;47.546;19.254;2022-12-24T09:09:16;11.10;;;7.70;;
74620;SDS011;64861;47.546;19.254;2022-12-24T09:11:41;11.45;;;8.70;;
74620;SDS011;64861;47.546;19.254;2022-12-24T09:14:07;11.55;;;8.40;;
74620;SDS011;64861;47.546;19.254;2022-12-24T09:16:32;10.45;;;7.93;;
74620;SDS011;64861;47.546;19.254;2022-12-24T09:18:58;11.60;;;8.05;;
74620;SDS011;64861;47.546;19.254;2022-12-24T09:21:23;12.02;;;8.32;;
74620;SDS011;64861;47.546;19.254;2022-12-24T09:23:49;10.73;;;7.95;;
74620;SDS011;64861;47.546;19.254;2022-12-24T09:26:24;11.02;;;7.78;;
74620;SDS011;64861;47.546;19.254;2022-12-24T09:28:51;11.13;;;8.15;;
74620;SDS011;64861;47.546;19.254;2022-12-24T09:31:17;11.13;;;7.95;;
74620;SDS011;64861;47.546;19.254;2022-12-24T09:33:45;11.73;;;8.20;;
74620;SDS011;64861;47.546;19.254;2022-12-24T09:36:12;11.55;;;8.13;;
74620;SDS011;64861;47.546;19.254;2022-12-24T09:38:38;11.10;;;7.80;;
74620;SDS011;64861;47.546;19.254;2022-12-24T09:47:00;11.05;;;7.22;;
74620;SDS011;64861;47.546;19.254;2022-12-24T09:49:37;10.23;;;7.47;;
74620;SDS011;64861;47.546;19.254;2022-12-24T09:52:07;9.80;;;7.90;;
74620;SDS011;64861;47.546;19.254;2022-12-24T09:54:37;10.68;;;7.88;;
74620;SDS011;64861;47.546;19.254;2022-12-24T09:57:21;11.73;;;7.85;;
74620;SDS011;64861;47.546;19.254;2022-12-24T09:59:53;11.63;;;7.75;;
74620;SDS011;64861;47.546;19.254;2022-12-24T10:02:19;10.70;;;7.25;;
74620;SDS011;64861;47.546;19.254;2022-12-24T10:04:45;10.13;;;7.13;;
74620;SDS011;64861;47.546;19.254;2022-12-24T10:10:30;9.85;;;7.07;;
74620;SDS011;64861;47.546;19.254;2022-12-24T10:12:53;10.18;;;7.10;;
74620;SDS011;64861;47.546;19.254;2022-12-24T10:16:02;9.55;;;6.70;;
74620;SDS011;64861;47.546;19.254;2022-12-24T10:21:38;10.52;;;7.22;;
74620;SDS011;64861;47.546;19.254;2022-12-24T10:24:09;10.20;;;7.10;;
74620;SDS011;64861;47.546;19.254;2022-12-24T10:26:56;10.43;;;7.65;;
74620;SDS011;64861;47.546;19.254;2022-12-24T10:29:28;10.50;;;7.20;;
74620;SDS011;64861;47.546;19.254;2022-12-24T10:34:44;9.98;;;6.85;;
74620;SDS011;64861;47.546;19.254;2022-12-24T10:37:14;10.93;;;7.70;;
74620;SDS011;64861;47.546;19.254;2022-12-24T10:39:44;10.60;;;7.28;;
74620;SDS011;64861;47.546;19.254;2022-12-24T10:42:09;10.27;;;7.18;;
74620;SDS011;64861;47.546;19.254;2022-12-24T10:44:38;9.82;;;6.97;;
74620;SDS011;64861;47.546;19.254;2022-12-24T10:47:04;10.50;;;7.53;;
74620;SDS011;64861;47.546;19.254;2022-12-24T10:49:42;9.95;;;7.03;;
74620;SDS011;64861;47.546;19.254;2022-12-24T10:52:12;9.93;;;6.90;;
74620;SDS011;64861;47.546;19.254;2022-12-24T10:57:33;11.45;;;6.97;;
74620;SDS011;64861;47.546;19.254;2022-12-24T10:59:59;10.52;;;7.22;;
74620;SDS011;64861;47.546;19.254;2022-12-24T11:05:04;10.13;;;6.93;;
74620;SDS011;64861;47.546;19.254;2022-12-24T11:07:58;9.20;;;6.57;;
74620;SDS011;64861;47.546;19.254;2022-12-24T11:10:25;10.00;;;7.07;;
74620;SDS011;64861;47.546;19.254;2022-12-24T11:12:50;9.93;;;6.72;;
74620;SDS011;64861;47.546;19.254;2022-12-24T11:15:23;9.88;;;6.68;;
74620;SDS011;64861;47.546;19.254;2022-12-24T11:17:53;9.00;;;7.07;;
74620;SDS011;64861;47.546;19.254;2022-12-24T11:20:25;8.95;;;6.63;;
74620;SDS011;64861;47.546;19.254;2022-12-24T11:22:52;9.75;;;6.93;;
74620;SDS011;64861;47.546;19.254;2022-12-24T11:25:26;10.68;;;6.90;;
74620;SDS011;64861;47.546;19.254;2022-12-24T11:27:53;9.65;;;6.57;;
74620;SDS011;64861;47.546;19.254;2022-12-24T11:30:27;9.23;;;6.15;;
74620;SDS011;64861;47.546;19.254;2022-12-24T11:35:24;9.40;;;6.43;;
74620;SDS011;64861;47.546;19.254;2022-12-24T11:40:24;9.65;;;6.70;;
74620;SDS011;64861;47.546;19.254;2022-12-24T11:42:58;9.70;;;6.65;;
74620;SDS011;64861;47.546;19.254;2022-12-24T11:45:25;9.05;;;6.20;;
74620;SDS011;64861;47.546;19.254;2022-12-24T11:47:52;10.40;;;7.13;;
74620;SDS011;64861;47.546;19.254;2022-12-24T11:59:07;9.20;;;6.50;;
74620;SDS011;64861;47.546;19.254;2022-12-24T12:01:17;9.57;;;6.20;;
74620;SDS011;64861;47.546;19.254;2022-12-24T12:04:05;9.20;;;6.50;;
74620;SDS011;64861;47.546;19.254;2022-12-24T12:06:44;8.90;;;5.97;;
74620;SDS011;64861;47.546;19.254;2022-12-24T12:09:46;8.02;;;5.82;;
74620;SDS011;64861;47.546;19.254;2022-12-24T12:12:13;10.57;;;6.85;;
74620;SDS011;64861;47.546;19.254;2022-12-24T12:15:00;8.50;;;6.03;;
74620;SDS011;64861;47.546;19.254;2022-12-24T12:17:38;9.05;;;6.43;;
74620;SDS011;64861;47.546;19.254;2022-12-24T12:25:22;9.88;;;6.43;;
74620;SDS011;64861;47.546;19.254;2022-12-24T12:27:54;9.75;;;6.32;;
74620;SDS011;64861;47.546;19.254;2022-12-24T12:30:21;8.90;;;6.38;;
74620;SDS011;64861;47.546;19.254;2022-12-24T12:35:39;8.13;;;5.88;;
74620;SDS011;64861;47.546;19.254;2022-12-24T12:38:10;8.73;;;5.93;;
74620;SDS011;64861;47.546;19.254;2022-12-24T12:40:54;9.07;;;5.93;;
74620;SDS011;64861;47.546;19.254;2022-12-24T12:51:47;8.40;;;5.68;;
74620;SDS011;64861;47.546;19.254;2022-12-24T12:56:50;8.65;;;5.88;;
74620;SDS011;64861;47.546;19.254;2022-12-24T12:59:39;9.73;;;6.30;;
74620;SDS011;64861;47.546;19.254;2022-12-24T13:02:24;8.23;;;5.63;;
74620;SDS011;64861;47.546;19.254;2022-12-24T13:07:49;8.40;;;6.00;;
74620;SDS011;64861;47.546;19.254;2022-12-24T13:22:13;8.05;;;5.53;;
74620;SDS011;64861;47.546;19.254;2022-12-24T13:24:46;7.82;;;5.47;;
74620;SDS011;64861;47.546;19.254;2022-12-24T13:27:15;7.63;;;5.47;;
74620;SDS011;64861;47.546;19.254;2022-12-24T13:29:50;8.45;;;5.65;;
74620;SDS011;64861;47.546;19.254;2022-12-24T13:37:22;7.68;;;5.35;;
74620;SDS011;64861;47.546;19.254;2022-12-24T13:48:00;10.35;;;5.78;;
74620;SDS011;64861;47.546;19.254;2022-12-24T13:50:46;7.72;;;5.10;;
74620;SDS011;64861;47.546;19.254;2022-12-24T13:53:56;8.43;;;5.22;;
74620;SDS011;64861;47.546;19.254;2022-12-24T13:58:41;7.47;;;5.00;;
74620;SDS011;64861;47.546;19.254;2022-12-24T14:01:14;8.75;;;5.72;;
74620;SDS011;64861;47.546;19.254;2022-12-24T14:03:52;8.40;;;5.43;;
74620;SDS011;64861;47.546;19.254;2022-12-24T14:06:40;8.25;;;5.13;;
74620;SDS011;64861;47.546;19.254;2022-12-24T14:09:13;7.70;;;5.10;;
74620;SDS011;64861;47.546;19.254;2022-12-24T14:12:27;7.78;;;5.15;;
74620;SDS011;64861;47.546;19.254;2022-12-24T14:14:34;8.02;;;5.20;;
74620;SDS011;64861;47.546;19.254;2022-12-24T14:17:19;8.40;;;5.47;;
74620;SDS011;64861;47.546;19.254;2022-12-24T14:19:50;7.32;;;5.10;;
74620;SDS011;64861;47.546;19.254;2022-12-24T14:24:58;8.15;;;5.00;;
74620;SDS011;64861;47.546;19.254;2022-12-24T14:27:42;7.55;;;5.22;;
74620;SDS011;64861;47.546;19.254;2022-12-24T14:32:38;7.85;;;5.18;;
74620;SDS011;64861;47.546;19.254;2022-12-24T14:35:24;7.18;;;4.93;;
74620;SDS011;64861;47.546;19.254;2022-12-24T14:37:59;7.50;;;5.03;;
74620;SDS011;64861;47.546;19.254;2022-12-24T14:40:27;8.45;;;5.50;;
74620;SDS011;64861;47.546;19.254;2022-12-24T14:43:17;8.57;;;5.57;;
74620;SDS011;64861;47.546;19.254;2022-12-24T14:46:07;7.05;;;4.45;;
74620;SDS011;64861;47.546;19.254;2022-12-24T14:48:51;7.78;;;5.00;;
74620;SDS011;64861;47.546;19.254;2022-12-24T14:54:49;7.28;;;4.90;;
74620;SDS011;64861;47.546;19.254;2022-12-24T14:59:44;7.28;;;4.80;;
74620;SDS011;64861;47.546;19.254;2022-12-24T15:02:39;7.65;;;4.78;;
74620;SDS011;64861;47.546;19.254;2022-12-24T15:07:35;7.72;;;5.00;;
74620;SDS011;64861;47.546;19.254;2022-12-24T15:10:04;8.05;;;4.80;;
74620;SDS011;64861;47.546;19.254;2022-12-24T15:12:43;6.82;;;4.45;;
74620;SDS011;64861;47.546;19.254;2022-12-24T15:15:13;7.45;;;4.63;;
74620;SDS011;64861;47.546;19.254;2022-12-24T15:17:40;6.57;;;4.40;;
74620;SDS011;64861;47.546;19.254;2022-12-24T15:20:09;8.02;;;5.13;;
74620;SDS011;64861;47.546;19.254;2022-12-24T15:22:42;7.72;;;5.10;;
74620;SDS011;64861;47.546;19.254;2022-12-24T15:25:19;7.43;;;4.53;;
74620;SDS011;64861;47.546;19.254;2022-12-24T15:27:50;7.78;;;4.82;;
74620;SDS011;64861;47.546;19.254;2022-12-24T15:30:18;8.80;;;4.95;;
74620;SDS011;64861;47.546;19.254;2022-12-24T15:32:46;6.47;;;4.15;;
74620;SDS011;64861;47.546;19.254;2022-12-24T15:37:57;7.70;;;4.80;;
74620;SDS011;64861;47.546;19.254;2022-12-24T15:40:23;7.47;;;5.00;;
74620;SDS011;64861;47.546;19.254;2022-12-24T15:42:49;7.43;;;4.63;;
74620;SDS011;64861;47.546;19.254;2022-12-24T15:45:16;7.03;;;4.68;;
74620;SDS011;64861;47.546;19.254;2022-12-24T15:47:53;7.10;;;4.30;;
74620;SDS011;64861;47.546;19.254;2022-12-24T15:52:50;7.00;;;4.50;;
74620;SDS011;64861;47.546;19.254;2022-12-24T15:55:23;7.60;;;4.78;;
74620;SDS011;64861;47.546;19.254;2022-12-24T15:57:51;7.22;;;4.45;;
74620;SDS011;64861;47.546;19.254;2022-12-24T16:00:20;7.18;;;4.45;;
74620;SDS011;64861;47.546;19.254;2022-12-24T16:02:51;8.18;;;5.03;;
74620;SDS011;64861;47.546;19.254;2022-12-24T16:07:59;7.38;;;4.60;;
74620;SDS011;64861;47.546;19.254;2022-12-24T16:10:37;6.85;;;4.47;;
74620;SDS011;64861;47.546;19.254;2022-12-24T16:13:13;6.65;;;4.45;;
74620;SDS011;64861;47.546;19.254;2022-12-24T16:16:04;6.95;;;4.72;;
74620;SDS011;64861;47.546;19.254;2022-12-24T16:18:32;7.60;;;4.78;;
74620;SDS011;64861;47.546;19.254;2022-12-24T16:21:00;7.70;;;4.57;;
74620;SDS011;64861;47.546;19.254;2022-12-24T16:23:30;6.75;;;4.38;;
74620;SDS011;64861;47.546;19.254;2022-12-24T16:26:02;6.72;;;4.25;;
74620;SDS011;64861;47.546;19.254;2022-12-24T16:28:27;7.38;;;4.55;;
74620;SDS011;64861;47.546;19.254;2022-12-24T16:30:53;7.15;;;4.53;;
74620;SDS011;64861;47.546;19.254;2022-12-24T16:33:20;6.93;;;4.35;;
74620;SDS011;64861;47.546;19.254;2022-12-24T16:35:47;6.95;;;4.53;;
74620;SDS011;64861;47.546;19.254;2022-12-24T16:38:14;6.90;;;4.30;;
74620;SDS011;64861;47.546;19.254;2022-12-24T16:40:40;6.90;;;4.78;;
74620;SDS011;64861;47.546;19.254;2022-12-24T16:43:06;9.07;;;4.65;;